sensor_id;sensor_type;location;lat;lon;timestamp;P1;durP1;ratioP1;P2;durP2;ratioP2
10667;SDS011;5382;42.136;24.796;2023-03-03T00:00:41;30.63;;;17.52;;
10667;SDS011;5382;42.136;24.796;2023-03-03T00:03:09;29.23;;;16.85;;
10667;SDS011;5382;42.136;24.796;2023-03-03T00:05:37;31.98;;;16.63;;
10667;SDS011;5382;42.136;24.796;2023-03-03T00:08:06;32.45;;;16.35;;
10667;SDS011;5382;42.136;24.796;2023-03-03T00:10:32;27.20;;;16.00;;
10667;SDS011;5382;42.136;24.796;2023-03-03T00:12:59;27.95;;;17.45;;
10667;SDS011;5382;42.136;24.796;2023-03-03T00:15:26;28.73;;;15.73;;
10667;SDS011;5382;42.136;24.796;2023-03-03T00:17:54;29.67;;;18.10;;
10667;SDS011;5382;42.136;24.796;2023-03-03T00:20:24;31.65;;;16.52;;
10667;SDS011;5382;42.136;24.796;2023-03-03T00:22:57;26.52;;;16.65;;
10667;SDS011;5382;42.136;24.796;2023-03-03T00:25:45;33.28;;;16.80;;
10667;SDS011;5382;42.136;24.796;2023-03-03T00:28:17;33.95;;;16.55;;
10667;SDS011;5382;42.136;24.796;2023-03-03T00:30:49;34.08;;;16.70;;
10667;SDS011;5382;42.136;24.796;2023-03-03T00:33:19;32.85;;;17.33;;
10667;SDS011;5382;42.136;24.796;2023-03-03T00:35:53;27.48;;;15.60;;
10667;SDS011;5382;42.136;24.796;2023-03-03T00:38:22;30.85;;;15.63;;
10667;SDS011;5382;42.136;24.796;2023-03-03T00:40:49;34.70;;;16.45;;
10667;SDS011;5382;42.136;24.796;2023-03-03T00:43:20;38.88;;;16.23;;
10667;SDS011;5382;42.136;24.796;2023-03-03T00:45:48;35.13;;;18.65;;
10667;SDS011;5382;42.136;24.796;2023-03-03T00:48:26;33.47;;;16.60;;
10667;SDS011;5382;42.136;24.796;2023-03-03T00:50:56;30.38;;;14.55;;
10667;SDS011;5382;42.136;24.796;2023-03-03T00:53:25;30.23;;;15.50;;
10667;SDS011;5382;42.136;24.796;2023-03-03T00:55:53;30.05;;;16.52;;
10667;SDS011;5382;42.136;24.796;2023-03-03T00:58:21;28.90;;;16.75;;
10667;SDS011;5382;42.136;24.796;2023-03-03T01:00:49;29.50;;;16.55;;
10667;SDS011;5382;42.136;24.796;2023-03-03T01:03:19;32.50;;;16.35;;
10667;SDS011;5382;42.136;24.796;2023-03-03T01:05:47;34.40;;;16.55;;
10667;SDS011;5382;42.136;24.796;2023-03-03T01:08:14;32.25;;;17.80;;
10667;SDS011;5382;42.136;24.796;2023-03-03T01:10:45;30.80;;;16.77;;
10667;SDS011;5382;42.136;24.796;2023-03-03T01:13:15;34.38;;;16.15;;
10667;SDS011;5382;42.136;24.796;2023-03-03T01:15:43;32.63;;;16.85;;
10667;SDS011;5382;42.136;24.796;2023-03-03T01:18:10;26.80;;;16.25;;
10667;SDS011;5382;42.136;24.796;2023-03-03T01:20:38;35.95;;;18.00;;
10667;SDS011;5382;42.136;24.796;2023-03-03T01:23:05;31.70;;;19.55;;
10667;SDS011;5382;42.136;24.796;2023-03-03T01:25:32;38.15;;;17.67;;
10667;SDS011;5382;42.136;24.796;2023-03-03T01:28:01;29.83;;;16.95;;
10667;SDS011;5382;42.136;24.796;2023-03-03T01:30:28;38.15;;;17.25;;
10667;SDS011;5382;42.136;24.796;2023-03-03T01:32:55;30.20;;;18.30;;
10667;SDS011;5382;42.136;24.796;2023-03-03T01:35:22;24.00;;;13.23;;
10667;SDS011;5382;42.136;24.796;2023-03-03T01:37:49;35.00;;;17.48;;
10667;SDS011;5382;42.136;24.796;2023-03-03T01:40:17;33.30;;;20.13;;
10667;SDS011;5382;42.136;24.796;2023-03-03T01:42:46;30.20;;;16.52;;
10667;SDS011;5382;42.136;24.796;2023-03-03T01:45:20;36.42;;;17.30;;
10667;SDS011;5382;42.136;24.796;2023-03-03T01:47:53;36.55;;;17.65;;
10667;SDS011;5382;42.136;24.796;2023-03-03T01:50:27;37.70;;;17.25;;
10667;SDS011;5382;42.136;24.796;2023-03-03T01:52:58;28.73;;;17.13;;
10667;SDS011;5382;42.136;24.796;2023-03-03T01:55:28;30.25;;;17.52;;
10667;SDS011;5382;42.136;24.796;2023-03-03T01:58:00;31.48;;;17.45;;
10667;SDS011;5382;42.136;24.796;2023-03-03T02:00:34;35.00;;;18.35;;
10667;SDS011;5382;42.136;24.796;2023-03-03T02:03:03;35.90;;;17.13;;
10667;SDS011;5382;42.136;24.796;2023-03-03T02:05:30;30.83;;;17.38;;
10667;SDS011;5382;42.136;24.796;2023-03-03T02:07:58;31.67;;;16.70;;
10667;SDS011;5382;42.136;24.796;2023-03-03T02:10:25;28.02;;;16.05;;
10667;SDS011;5382;42.136;24.796;2023-03-03T02:12:54;30.95;;;17.15;;
10667;SDS011;5382;42.136;24.796;2023-03-03T02:15:24;30.75;;;17.10;;
10667;SDS011;5382;42.136;24.796;2023-03-03T02:17:54;27.27;;;16.35;;
10667;SDS011;5382;42.136;24.796;2023-03-03T02:20:29;28.80;;;16.77;;
10667;SDS011;5382;42.136;24.796;2023-03-03T02:23:06;29.58;;;17.00;;
10667;SDS011;5382;42.136;24.796;2023-03-03T02:25:39;32.47;;;17.00;;
10667;SDS011;5382;42.136;24.796;2023-03-03T02:28:15;26.63;;;16.88;;
10667;SDS011;5382;42.136;24.796;2023-03-03T02:30:42;29.10;;;17.45;;
10667;SDS011;5382;42.136;24.796;2023-03-03T02:33:09;31.42;;;16.10;;
10667;SDS011;5382;42.136;24.796;2023-03-03T02:35:37;25.73;;;15.52;;
10667;SDS011;5382;42.136;24.796;2023-03-03T02:38:13;29.83;;;17.75;;
10667;SDS011;5382;42.136;24.796;2023-03-03T02:40:46;30.38;;;16.23;;
10667;SDS011;5382;42.136;24.796;2023-03-03T02:43:23;29.65;;;17.40;;
10667;SDS011;5382;42.136;24.796;2023-03-03T02:45:55;31.55;;;16.80;;
10667;SDS011;5382;42.136;24.796;2023-03-03T02:48:23;30.73;;;16.40;;
10667;SDS011;5382;42.136;24.796;2023-03-03T02:50:49;36.30;;;17.85;;
10667;SDS011;5382;42.136;24.796;2023-03-03T02:53:17;32.10;;;17.08;;
10667;SDS011;5382;42.136;24.796;2023-03-03T02:55:44;31.08;;;16.25;;
10667;SDS011;5382;42.136;24.796;2023-03-03T02:58:11;35.63;;;16.85;;
10667;SDS011;5382;42.136;24.796;2023-03-03T03:00:39;34.15;;;16.90;;
10667;SDS011;5382;42.136;24.796;2023-03-03T03:03:06;31.10;;;16.33;;
10667;SDS011;5382;42.136;24.796;2023-03-03T03:05:32;36.47;;;17.02;;
10667;SDS011;5382;42.136;24.796;2023-03-03T03:07:59;28.33;;;17.48;;
10667;SDS011;5382;42.136;24.796;2023-03-03T03:10:26;31.58;;;16.65;;
10667;SDS011;5382;42.136;24.796;2023-03-03T03:12:53;33.03;;;16.52;;
10667;SDS011;5382;42.136;24.796;2023-03-03T03:15:20;28.95;;;15.88;;
10667;SDS011;5382;42.136;24.796;2023-03-03T03:17:48;30.63;;;16.98;;
10667;SDS011;5382;42.136;24.796;2023-03-03T03:20:15;38.10;;;18.23;;
10667;SDS011;5382;42.136;24.796;2023-03-03T03:22:42;37.38;;;17.02;;
10667;SDS011;5382;42.136;24.796;2023-03-03T03:25:09;32.17;;;16.38;;
10667;SDS011;5382;42.136;24.796;2023-03-03T03:27:36;30.38;;;17.58;;
10667;SDS011;5382;42.136;24.796;2023-03-03T03:30:03;33.67;;;17.00;;
10667;SDS011;5382;42.136;24.796;2023-03-03T03:32:30;32.38;;;17.90;;
10667;SDS011;5382;42.136;24.796;2023-03-03T03:34:58;28.35;;;16.23;;
10667;SDS011;5382;42.136;24.796;2023-03-03T03:37:25;27.33;;;17.05;;
10667;SDS011;5382;42.136;24.796;2023-03-03T03:39:52;32.03;;;17.48;;
10667;SDS011;5382;42.136;24.796;2023-03-03T03:42:20;29.63;;;17.63;;
10667;SDS011;5382;42.136;24.796;2023-03-03T03:44:47;28.27;;;15.35;;
10667;SDS011;5382;42.136;24.796;2023-03-03T03:47:15;34.13;;;18.05;;
10667;SDS011;5382;42.136;24.796;2023-03-03T03:49:42;27.35;;;15.88;;
10667;SDS011;5382;42.136;24.796;2023-03-03T03:52:10;32.60;;;16.50;;
10667;SDS011;5382;42.136;24.796;2023-03-03T03:54:37;35.53;;;18.13;;
10667;SDS011;5382;42.136;24.796;2023-03-03T03:57:04;26.48;;;16.20;;
10667;SDS011;5382;42.136;24.796;2023-03-03T03:59:31;23.63;;;15.25;;
10667;SDS011;5382;42.136;24.796;2023-03-03T04:01:57;30.40;;;17.42;;
10667;SDS011;5382;42.136;24.796;2023-03-03T04:04:24;38.85;;;17.42;;
10667;SDS011;5382;42.136;24.796;2023-03-03T04:06:51;26.52;;;16.25;;
10667;SDS011;5382;42.136;24.796;2023-03-03T04:09:19;30.13;;;15.90;;
10667;SDS011;5382;42.136;24.796;2023-03-03T04:11:46;30.75;;;18.80;;
10667;SDS011;5382;42.136;24.796;2023-03-03T04:14:13;32.20;;;17.48;;
10667;SDS011;5382;42.136;24.796;2023-03-03T04:16:40;32.40;;;18.25;;
10667;SDS011;5382;42.136;24.796;2023-03-03T04:19:07;31.80;;;18.05;;
10667;SDS011;5382;42.136;24.796;2023-03-03T04:21:33;30.95;;;18.75;;
10667;SDS011;5382;42.136;24.796;2023-03-03T04:24:00;32.22;;;18.15;;
10667;SDS011;5382;42.136;24.796;2023-03-03T04:26:28;30.73;;;17.90;;
10667;SDS011;5382;42.136;24.796;2023-03-03T04:28:56;32.38;;;17.30;;
10667;SDS011;5382;42.136;24.796;2023-03-03T04:31:23;37.67;;;18.73;;
10667;SDS011;5382;42.136;24.796;2023-03-03T04:33:51;32.97;;;18.38;;
10667;SDS011;5382;42.136;24.796;2023-03-03T04:36:18;37.60;;;18.70;;
10667;SDS011;5382;42.136;24.796;2023-03-03T04:38:45;34.00;;;18.95;;
10667;SDS011;5382;42.136;24.796;2023-03-03T04:41:13;32.22;;;17.05;;
10667;SDS011;5382;42.136;24.796;2023-03-03T04:43:41;31.33;;;18.55;;
10667;SDS011;5382;42.136;24.796;2023-03-03T04:46:08;35.97;;;18.90;;
10667;SDS011;5382;42.136;24.796;2023-03-03T04:48:35;30.55;;;18.00;;
10667;SDS011;5382;42.136;24.796;2023-03-03T04:51:02;27.48;;;17.63;;
10667;SDS011;5382;42.136;24.796;2023-03-03T04:53:29;30.17;;;19.38;;
10667;SDS011;5382;42.136;24.796;2023-03-03T04:55:56;31.35;;;17.80;;
10667;SDS011;5382;42.136;24.796;2023-03-03T04:58:23;38.00;;;18.83;;
10667;SDS011;5382;42.136;24.796;2023-03-03T05:00:53;36.05;;;18.55;;
10667;SDS011;5382;42.136;24.796;2023-03-03T05:03:21;31.75;;;17.38;;
10667;SDS011;5382;42.136;24.796;2023-03-03T05:05:49;30.73;;;16.23;;
10667;SDS011;5382;42.136;24.796;2023-03-03T05:08:16;31.48;;;17.27;;
10667;SDS011;5382;42.136;24.796;2023-03-03T05:10:42;34.05;;;18.00;;
10667;SDS011;5382;42.136;24.796;2023-03-03T05:13:09;32.72;;;17.58;;
10667;SDS011;5382;42.136;24.796;2023-03-03T05:15:39;33.28;;;18.38;;
10667;SDS011;5382;42.136;24.796;2023-03-03T05:18:07;34.78;;;16.90;;
10667;SDS011;5382;42.136;24.796;2023-03-03T05:20:35;29.00;;;16.15;;
10667;SDS011;5382;42.136;24.796;2023-03-03T05:23:02;28.98;;;15.90;;
10667;SDS011;5382;42.136;24.796;2023-03-03T05:25:29;26.50;;;16.27;;
10667;SDS011;5382;42.136;24.796;2023-03-03T05:28:12;31.85;;;17.83;;
10667;SDS011;5382;42.136;24.796;2023-03-03T05:30:38;27.88;;;16.38;;
10667;SDS011;5382;42.136;24.796;2023-03-03T05:33:05;32.65;;;17.33;;
10667;SDS011;5382;42.136;24.796;2023-03-03T05:35:37;26.02;;;15.80;;
10667;SDS011;5382;42.136;24.796;2023-03-03T05:38:04;25.42;;;15.90;;
10667;SDS011;5382;42.136;24.796;2023-03-03T05:40:31;27.52;;;14.35;;
10667;SDS011;5382;42.136;24.796;2023-03-03T05:42:58;25.65;;;17.13;;
10667;SDS011;5382;42.136;24.796;2023-03-03T05:45:25;27.27;;;14.38;;
10667;SDS011;5382;42.136;24.796;2023-03-03T05:47:52;29.55;;;16.23;;
10667;SDS011;5382;42.136;24.796;2023-03-03T05:50:23;27.25;;;15.95;;
10667;SDS011;5382;42.136;24.796;2023-03-03T05:52:50;25.05;;;15.73;;
10667;SDS011;5382;42.136;24.796;2023-03-03T05:55:17;24.30;;;15.65;;
10667;SDS011;5382;42.136;24.796;2023-03-03T05:57:45;26.30;;;15.95;;
10667;SDS011;5382;42.136;24.796;2023-03-03T06:00:12;27.98;;;15.25;;
10667;SDS011;5382;42.136;24.796;2023-03-03T06:02:40;22.45;;;14.55;;
10667;SDS011;5382;42.136;24.796;2023-03-03T06:05:08;24.40;;;16.17;;
10667;SDS011;5382;42.136;24.796;2023-03-03T06:07:37;28.73;;;16.05;;
10667;SDS011;5382;42.136;24.796;2023-03-03T06:10:04;32.08;;;15.63;;
10667;SDS011;5382;42.136;24.796;2023-03-03T06:12:31;28.75;;;16.23;;
10667;SDS011;5382;42.136;24.796;2023-03-03T06:14:58;24.33;;;15.43;;
10667;SDS011;5382;42.136;24.796;2023-03-03T06:17:25;28.85;;;15.38;;
10667;SDS011;5382;42.136;24.796;2023-03-03T06:19:52;27.23;;;14.60;;
10667;SDS011;5382;42.136;24.796;2023-03-03T06:22:19;23.33;;;15.02;;
10667;SDS011;5382;42.136;24.796;2023-03-03T06:24:47;23.48;;;15.48;;
10667;SDS011;5382;42.136;24.796;2023-03-03T06:27:14;24.65;;;14.68;;
10667;SDS011;5382;42.136;24.796;2023-03-03T06:29:40;24.88;;;14.57;;
10667;SDS011;5382;42.136;24.796;2023-03-03T06:32:08;35.05;;;17.40;;
10667;SDS011;5382;42.136;24.796;2023-03-03T06:34:34;22.80;;;14.70;;
10667;SDS011;5382;42.136;24.796;2023-03-03T06:37:01;23.85;;;15.43;;
10667;SDS011;5382;42.136;24.796;2023-03-03T06:39:29;26.40;;;15.20;;
10667;SDS011;5382;42.136;24.796;2023-03-03T06:41:57;27.15;;;16.40;;
10667;SDS011;5382;42.136;24.796;2023-03-03T06:44:24;22.40;;;14.43;;
10667;SDS011;5382;42.136;24.796;2023-03-03T06:46:51;23.70;;;14.63;;
10667;SDS011;5382;42.136;24.796;2023-03-03T06:49:18;24.52;;;13.98;;
10667;SDS011;5382;42.136;24.796;2023-03-03T06:51:45;31.35;;;17.33;;
10667;SDS011;5382;42.136;24.796;2023-03-03T06:54:12;24.38;;;16.50;;
10667;SDS011;5382;42.136;24.796;2023-03-03T06:56:41;24.08;;;15.55;;
10667;SDS011;5382;42.136;24.796;2023-03-03T06:59:12;27.13;;;15.75;;
10667;SDS011;5382;42.136;24.796;2023-03-03T07:01:41;22.60;;;15.30;;
10667;SDS011;5382;42.136;24.796;2023-03-03T07:04:10;27.65;;;16.42;;
10667;SDS011;5382;42.136;24.796;2023-03-03T07:06:41;24.50;;;15.07;;
10667;SDS011;5382;42.136;24.796;2023-03-03T07:09:08;31.25;;;15.45;;
10667;SDS011;5382;42.136;24.796;2023-03-03T07:11:43;26.33;;;14.45;;
10667;SDS011;5382;42.136;24.796;2023-03-03T07:14:13;23.90;;;12.75;;
10667;SDS011;5382;42.136;24.796;2023-03-03T07:16:42;24.23;;;13.95;;
10667;SDS011;5382;42.136;24.796;2023-03-03T07:19:12;28.92;;;13.95;;
10667;SDS011;5382;42.136;24.796;2023-03-03T07:21:44;24.17;;;13.35;;
10667;SDS011;5382;42.136;24.796;2023-03-03T07:24:17;27.67;;;14.85;;
10667;SDS011;5382;42.136;24.796;2023-03-03T07:26:51;25.05;;;14.02;;
10667;SDS011;5382;42.136;24.796;2023-03-03T07:29:22;26.75;;;14.35;;
10667;SDS011;5382;42.136;24.796;2023-03-03T07:31:51;19.20;;;12.38;;
10667;SDS011;5382;42.136;24.796;2023-03-03T07:34:20;26.23;;;14.83;;
10667;SDS011;5382;42.136;24.796;2023-03-03T07:36:49;24.45;;;16.67;;
10667;SDS011;5382;42.136;24.796;2023-03-03T07:39:23;20.88;;;14.93;;
10667;SDS011;5382;42.136;24.796;2023-03-03T07:41:54;20.45;;;13.00;;
10667;SDS011;5382;42.136;24.796;2023-03-03T07:44:28;21.17;;;13.25;;
10667;SDS011;5382;42.136;24.796;2023-03-03T07:47:10;18.00;;;12.30;;
10667;SDS011;5382;42.136;24.796;2023-03-03T07:49:43;18.52;;;11.93;;
10667;SDS011;5382;42.136;24.796;2023-03-03T07:55:18;18.98;;;12.07;;
10667;SDS011;5382;42.136;24.796;2023-03-03T07:58:05;19.67;;;10.68;;
10667;SDS011;5382;42.136;24.796;2023-03-03T08:03:53;19.95;;;10.55;;
10667;SDS011;5382;42.136;24.796;2023-03-03T08:06:30;21.77;;;11.90;;
10667;SDS011;5382;42.136;24.796;2023-03-03T08:09:15;17.67;;;11.55;;
10667;SDS011;5382;42.136;24.796;2023-03-03T08:11:53;16.92;;;11.68;;
10667;SDS011;5382;42.136;24.796;2023-03-03T08:14:24;17.92;;;11.30;;
10667;SDS011;5382;42.136;24.796;2023-03-03T08:16:53;17.88;;;11.75;;
10667;SDS011;5382;42.136;24.796;2023-03-03T08:19:22;18.17;;;12.50;;
10667;SDS011;5382;42.136;24.796;2023-03-03T08:21:50;22.05;;;12.48;;
10667;SDS011;5382;42.136;24.796;2023-03-03T08:24:17;18.20;;;11.65;;
10667;SDS011;5382;42.136;24.796;2023-03-03T08:26:44;19.83;;;11.90;;
10667;SDS011;5382;42.136;24.796;2023-03-03T08:29:10;21.98;;;11.43;;
10667;SDS011;5382;42.136;24.796;2023-03-03T08:31:37;19.45;;;11.45;;
10667;SDS011;5382;42.136;24.796;2023-03-03T08:34:04;17.92;;;11.48;;
10667;SDS011;5382;42.136;24.796;2023-03-03T08:36:32;20.17;;;11.23;;
10667;SDS011;5382;42.136;24.796;2023-03-03T08:38:59;20.50;;;11.98;;
10667;SDS011;5382;42.136;24.796;2023-03-03T08:41:26;18.70;;;11.60;;
10667;SDS011;5382;42.136;24.796;2023-03-03T08:43:53;18.05;;;11.27;;
10667;SDS011;5382;42.136;24.796;2023-03-03T08:46:20;18.08;;;11.77;;
10667;SDS011;5382;42.136;24.796;2023-03-03T08:48:47;16.20;;;12.55;;
10667;SDS011;5382;42.136;24.796;2023-03-03T08:51:14;19.90;;;13.10;;
10667;SDS011;5382;42.136;24.796;2023-03-03T08:53:42;19.08;;;11.38;;
10667;SDS011;5382;42.136;24.796;2023-03-03T08:56:09;16.48;;;11.18;;
10667;SDS011;5382;42.136;24.796;2023-03-03T08:58:35;18.75;;;11.75;;
10667;SDS011;5382;42.136;24.796;2023-03-03T09:01:03;19.92;;;11.63;;
10667;SDS011;5382;42.136;24.796;2023-03-03T09:03:30;18.40;;;11.90;;
10667;SDS011;5382;42.136;24.796;2023-03-03T09:05:57;19.63;;;12.75;;
10667;SDS011;5382;42.136;24.796;2023-03-03T09:08:24;18.88;;;12.73;;
10667;SDS011;5382;42.136;24.796;2023-03-03T09:10:52;18.40;;;10.98;;
10667;SDS011;5382;42.136;24.796;2023-03-03T09:13:19;18.60;;;11.68;;
10667;SDS011;5382;42.136;24.796;2023-03-03T09:15:46;14.90;;;9.65;;
10667;SDS011;5382;42.136;24.796;2023-03-03T09:18:15;17.58;;;12.25;;
10667;SDS011;5382;42.136;24.796;2023-03-03T09:20:44;18.50;;;11.23;;
10667;SDS011;5382;42.136;24.796;2023-03-03T09:23:24;19.48;;;11.82;;
10667;SDS011;5382;42.136;24.796;2023-03-03T09:25:57;20.30;;;12.88;;
10667;SDS011;5382;42.136;24.796;2023-03-03T09:28:37;22.15;;;12.60;;
10667;SDS011;5382;42.136;24.796;2023-03-03T09:31:05;19.33;;;12.20;;
10667;SDS011;5382;42.136;24.796;2023-03-03T09:33:47;22.40;;;12.77;;
10667;SDS011;5382;42.136;24.796;2023-03-03T09:36:18;20.27;;;13.10;;
10667;SDS011;5382;42.136;24.796;2023-03-03T09:38:48;23.35;;;15.50;;
10667;SDS011;5382;42.136;24.796;2023-03-03T09:41:22;16.73;;;11.88;;
10667;SDS011;5382;42.136;24.796;2023-03-03T09:47:20;12.38;;;8.65;;
10667;SDS011;5382;42.136;24.796;2023-03-03T09:50:00;15.82;;;8.43;;
10667;SDS011;5382;42.136;24.796;2023-03-03T09:52:36;13.65;;;8.40;;
10667;SDS011;5382;42.136;24.796;2023-03-03T09:55:12;12.07;;;8.50;;
10667;SDS011;5382;42.136;24.796;2023-03-03T10:01:11;10.15;;;7.13;;
10667;SDS011;5382;42.136;24.796;2023-03-03T10:04:00;12.95;;;8.00;;
10667;SDS011;5382;42.136;24.796;2023-03-03T10:06:37;11.27;;;9.10;;
10667;SDS011;5382;42.136;24.796;2023-03-03T10:09:19;13.45;;;7.88;;
10667;SDS011;5382;42.136;24.796;2023-03-03T10:12:03;12.60;;;7.78;;
10667;SDS011;5382;42.136;24.796;2023-03-03T10:14:38;11.20;;;7.45;;
10667;SDS011;5382;42.136;24.796;2023-03-03T10:17:26;11.90;;;6.65;;
10667;SDS011;5382;42.136;24.796;2023-03-03T10:20:11;10.20;;;6.78;;
10667;SDS011;5382;42.136;24.796;2023-03-03T10:22:49;12.10;;;9.43;;
10667;SDS011;5382;42.136;24.796;2023-03-03T10:25:25;10.93;;;7.88;;
10667;SDS011;5382;42.136;24.796;2023-03-03T10:28:03;11.77;;;8.45;;
10667;SDS011;5382;42.136;24.796;2023-03-03T10:30:44;9.48;;;6.53;;
10667;SDS011;5382;42.136;24.796;2023-03-03T10:33:20;14.93;;;7.70;;
10667;SDS011;5382;42.136;24.796;2023-03-03T10:36:06;13.93;;;7.55;;
10667;SDS011;5382;42.136;24.796;2023-03-03T10:38:51;12.07;;;7.50;;
10667;SDS011;5382;42.136;24.796;2023-03-03T10:41:34;11.60;;;7.28;;
10667;SDS011;5382;42.136;24.796;2023-03-03T10:44:17;11.38;;;8.27;;
10667;SDS011;5382;42.136;24.796;2023-03-03T10:47:10;11.57;;;8.63;;
10667;SDS011;5382;42.136;24.796;2023-03-03T10:49:59;11.88;;;7.97;;
10667;SDS011;5382;42.136;24.796;2023-03-03T10:52:38;13.93;;;10.65;;
10667;SDS011;5382;42.136;24.796;2023-03-03T10:55:16;14.55;;;10.45;;
10667;SDS011;5382;42.136;24.796;2023-03-03T10:57:53;15.20;;;9.40;;
10667;SDS011;5382;42.136;24.796;2023-03-03T11:00:32;12.10;;;8.88;;
10667;SDS011;5382;42.136;24.796;2023-03-03T11:03:19;14.73;;;9.30;;
10667;SDS011;5382;42.136;24.796;2023-03-03T11:06:11;13.45;;;9.25;;
10667;SDS011;5382;42.136;24.796;2023-03-03T11:08:42;17.00;;;11.95;;
10667;SDS011;5382;42.136;24.796;2023-03-03T11:11:15;12.38;;;9.32;;
10667;SDS011;5382;42.136;24.796;2023-03-03T11:13:49;14.65;;;9.07;;
10667;SDS011;5382;42.136;24.796;2023-03-03T11:16:32;17.10;;;12.88;;
10667;SDS011;5382;42.136;24.796;2023-03-03T11:22:16;17.90;;;11.13;;
10667;SDS011;5382;42.136;24.796;2023-03-03T11:25:00;19.85;;;14.65;;
10667;SDS011;5382;42.136;24.796;2023-03-03T11:27:47;18.52;;;12.93;;
10667;SDS011;5382;42.136;24.796;2023-03-03T11:30:44;19.85;;;12.55;;
10667;SDS011;5382;42.136;24.796;2023-03-03T11:33:22;16.35;;;12.02;;
10667;SDS011;5382;42.136;24.796;2023-03-03T11:35:58;23.52;;;11.55;;
10667;SDS011;5382;42.136;24.796;2023-03-03T11:38:44;19.30;;;15.38;;
10667;SDS011;5382;42.136;24.796;2023-03-03T11:41:19;19.75;;;17.15;;
10667;SDS011;5382;42.136;24.796;2023-03-03T11:43:55;17.33;;;13.35;;
10667;SDS011;5382;42.136;24.796;2023-03-03T11:46:26;24.08;;;16.95;;
10667;SDS011;5382;42.136;24.796;2023-03-03T11:48:58;19.35;;;15.73;;
10667;SDS011;5382;42.136;24.796;2023-03-03T11:51:31;21.40;;;16.13;;
10667;SDS011;5382;42.136;24.796;2023-03-03T11:54:09;27.42;;;17.33;;
10667;SDS011;5382;42.136;24.796;2023-03-03T11:56:46;21.98;;;17.13;;
10667;SDS011;5382;42.136;24.796;2023-03-03T11:59:24;20.02;;;15.65;;
10667;SDS011;5382;42.136;24.796;2023-03-03T12:02:02;27.73;;;17.90;;
10667;SDS011;5382;42.136;24.796;2023-03-03T12:04:46;23.50;;;17.55;;
10667;SDS011;5382;42.136;24.796;2023-03-03T12:07:21;20.55;;;15.65;;
10667;SDS011;5382;42.136;24.796;2023-03-03T12:10:03;20.85;;;15.32;;
10667;SDS011;5382;42.136;24.796;2023-03-03T12:12:40;21.30;;;12.85;;
10667;SDS011;5382;42.136;24.796;2023-03-03T12:15:16;17.45;;;12.73;;
10667;SDS011;5382;42.136;24.796;2023-03-03T12:18:05;19.73;;;13.38;;
10667;SDS011;5382;42.136;24.796;2023-03-03T12:20:48;14.15;;;10.80;;
10667;SDS011;5382;42.136;24.796;2023-03-03T12:23:34;16.92;;;14.30;;
10667;SDS011;5382;42.136;24.796;2023-03-03T12:26:24;15.95;;;13.68;;
10667;SDS011;5382;42.136;24.796;2023-03-03T12:28:57;13.07;;;8.10;;
10667;SDS011;5382;42.136;24.796;2023-03-03T12:31:32;16.48;;;12.82;;
10667;SDS011;5382;42.136;24.796;2023-03-03T12:34:14;17.05;;;14.15;;
10667;SDS011;5382;42.136;24.796;2023-03-03T12:39:51;19.85;;;15.65;;
10667;SDS011;5382;42.136;24.796;2023-03-03T12:42:32;17.75;;;12.10;;
10667;SDS011;5382;42.136;24.796;2023-03-03T12:45:10;17.90;;;14.75;;
10667;SDS011;5382;42.136;24.796;2023-03-03T12:47:54;22.05;;;16.13;;
10667;SDS011;5382;42.136;24.796;2023-03-03T12:50:34;14.20;;;9.98;;
10667;SDS011;5382;42.136;24.796;2023-03-03T12:53:13;17.20;;;11.00;;
10667;SDS011;5382;42.136;24.796;2023-03-03T12:55:51;15.77;;;11.65;;
10667;SDS011;5382;42.136;24.796;2023-03-03T12:58:30;12.70;;;11.32;;
10667;SDS011;5382;42.136;24.796;2023-03-03T13:01:07;13.65;;;11.85;;
10667;SDS011;5382;42.136;24.796;2023-03-03T13:03:45;15.65;;;13.23;;
10667;SDS011;5382;42.136;24.796;2023-03-03T13:06:21;18.90;;;13.90;;
10667;SDS011;5382;42.136;24.796;2023-03-03T13:11:49;14.65;;;11.90;;
10667;SDS011;5382;42.136;24.796;2023-03-03T13:14:30;16.00;;;13.32;;
10667;SDS011;5382;42.136;24.796;2023-03-03T13:17:08;18.00;;;15.15;;
10667;SDS011;5382;42.136;24.796;2023-03-03T13:19:44;19.08;;;15.82;;
10667;SDS011;5382;42.136;24.796;2023-03-03T13:22:16;18.05;;;13.15;;
10667;SDS011;5382;42.136;24.796;2023-03-03T13:24:54;19.13;;;15.10;;
10667;SDS011;5382;42.136;24.796;2023-03-03T13:27:30;19.63;;;14.10;;
10667;SDS011;5382;42.136;24.796;2023-03-03T13:30:07;19.08;;;15.73;;
10667;SDS011;5382;42.136;24.796;2023-03-03T13:32:43;15.50;;;11.10;;
10667;SDS011;5382;42.136;24.796;2023-03-03T13:35:30;15.30;;;12.75;;
10667;SDS011;5382;42.136;24.796;2023-03-03T13:38:03;16.10;;;11.75;;
10667;SDS011;5382;42.136;24.796;2023-03-03T13:40:38;18.30;;;12.15;;
10667;SDS011;5382;42.136;24.796;2023-03-03T13:43:09;21.77;;;11.18;;
10667;SDS011;5382;42.136;24.796;2023-03-03T13:45:46;16.10;;;14.38;;
10667;SDS011;5382;42.136;24.796;2023-03-03T13:48:25;18.13;;;13.55;;
10667;SDS011;5382;42.136;24.796;2023-03-03T13:51:03;18.58;;;14.07;;
10667;SDS011;5382;42.136;24.796;2023-03-03T13:53:42;14.60;;;12.25;;
10667;SDS011;5382;42.136;24.796;2023-03-03T13:59:15;15.07;;;12.75;;
10667;SDS011;5382;42.136;24.796;2023-03-03T14:01:56;21.70;;;14.70;;
10667;SDS011;5382;42.136;24.796;2023-03-03T14:04:36;13.57;;;10.32;;
10667;SDS011;5382;42.136;24.796;2023-03-03T14:07:14;16.63;;;10.55;;
10667;SDS011;5382;42.136;24.796;2023-03-03T14:09:50;16.00;;;12.80;;
10667;SDS011;5382;42.136;24.796;2023-03-03T14:12:26;16.52;;;12.88;;
10667;SDS011;5382;42.136;24.796;2023-03-03T14:15:03;15.48;;;10.52;;
10667;SDS011;5382;42.136;24.796;2023-03-03T14:17:43;15.93;;;12.73;;
10667;SDS011;5382;42.136;24.796;2023-03-03T14:20:26;15.35;;;11.38;;
10667;SDS011;5382;42.136;24.796;2023-03-03T14:22:57;15.70;;;12.38;;
10667;SDS011;5382;42.136;24.796;2023-03-03T14:25:26;14.73;;;11.88;;
10667;SDS011;5382;42.136;24.796;2023-03-03T14:28:18;14.90;;;8.35;;
10667;SDS011;5382;42.136;24.796;2023-03-03T14:30:47;14.88;;;9.55;;
10667;SDS011;5382;42.136;24.796;2023-03-03T14:33:20;14.23;;;10.80;;
10667;SDS011;5382;42.136;24.796;2023-03-03T14:35:59;13.73;;;10.77;;
10667;SDS011;5382;42.136;24.796;2023-03-03T14:38:36;16.40;;;11.07;;
10667;SDS011;5382;42.136;24.796;2023-03-03T14:41:11;16.60;;;12.00;;
10667;SDS011;5382;42.136;24.796;2023-03-03T14:43:42;15.55;;;12.65;;
10667;SDS011;5382;42.136;24.796;2023-03-03T14:46:21;18.50;;;13.18;;
10667;SDS011;5382;42.136;24.796;2023-03-03T14:49:03;12.48;;;11.20;;
10667;SDS011;5382;42.136;24.796;2023-03-03T14:51:32;11.85;;;9.15;;
10667;SDS011;5382;42.136;24.796;2023-03-03T14:54:07;11.43;;;10.00;;
10667;SDS011;5382;42.136;24.796;2023-03-03T14:56:53;11.05;;;9.85;;
10667;SDS011;5382;42.136;24.796;2023-03-03T14:59:23;11.07;;;9.73;;
10667;SDS011;5382;42.136;24.796;2023-03-03T15:01:55;11.10;;;9.05;;
10667;SDS011;5382;42.136;24.796;2023-03-03T15:04:27;10.27;;;7.10;;
10667;SDS011;5382;42.136;24.796;2023-03-03T15:06:56;15.50;;;10.73;;
10667;SDS011;5382;42.136;24.796;2023-03-03T15:09:28;9.82;;;8.05;;
10667;SDS011;5382;42.136;24.796;2023-03-03T15:12:01;12.38;;;8.65;;
10667;SDS011;5382;42.136;24.796;2023-03-03T15:14:30;7.88;;;6.93;;
10667;SDS011;5382;42.136;24.796;2023-03-03T15:19:55;9.98;;;7.40;;